createdAt,value
2019-05-09T00:00:03.889Z,96.18
2019-05-09T00:05:03.399Z,99.12
2019-05-09T00:10:04.083Z,98.34
2019-05-09T00:15:04.461Z,99.05
2019-05-09T00:20:03.513Z,95.99
2019-05-09T00:25:03.293Z,98.54
2019-05-09T00:30:03.726Z,95.87
2019-05-09T00:35:03.870Z,98.5
2019-05-09T00:40:01.268Z,96.2
2019-05-09T00:45:01.901Z,98.98
2019-05-09T00:50:02.011Z,96.32
2019-05-09T00:55:01.196Z,98.63
2019-05-09T01:00:01.361Z,98.08
2019-05-09T01:05:03.991Z,98.96
2019-05-09T01:10:04.056Z,98.12
2019-05-09T01:15:03.348Z,98.65
2019-05-09T01:20:03.417Z,95.74
2019-05-09T01:25:03.984Z,98.32
2019-05-09T01:30:01.297Z,95.41
2019-05-09T01:35:03.692Z,97.31
2019-05-09T01:40:04.152Z,97.75
2019-05-09T01:45:03.589Z,97.54
2019-05-09T01:50:03.881Z,95
2019-05-09T01:55:03.571Z,97.99
2019-05-09T02:00:03.989Z,97.91
2019-05-09T02:05:01.355Z,97.97
2019-05-09T02:10:03.406Z,98.02
2019-05-09T02:15:03.833Z,98.05
2019-05-09T02:20:01.136Z,97.4
2019-05-09T02:25:04.162Z,97.08
2019-05-09T02:30:05.213Z,97.36
2019-05-09T02:35:05.007Z,97.95
2019-05-09T02:40:01.424Z,96.99
2019-05-09T02:45:01.601Z,96.86
2019-05-09T02:50:01.709Z,97.56
2019-05-09T02:55:01.836Z,97.53
2019-05-09T03:00:01.943Z,96.91
2019-05-09T03:05:02.108Z,97.1
2019-05-09T03:10:01.204Z,96.21
2019-05-09T03:15:01.387Z,96.07
2019-05-09T03:20:01.491Z,95.65
2019-05-09T03:25:01.717Z,95.28
2019-05-09T03:30:01.855Z,95.32
2019-05-09T03:35:02.036Z,95.41
2019-05-09T03:40:01.153Z,95.87
2019-05-09T03:45:01.287Z,96.13
2019-05-09T03:50:01.393Z,96.47
2019-05-09T03:55:01.547Z,97.15
2019-05-09T04:00:01.645Z,97.34
2019-05-09T04:05:01.881Z,97.57
2019-05-09T04:10:01.988Z,97.52
2019-05-09T04:15:02.091Z,97.02
2019-05-09T04:20:01.221Z,97.21
2019-05-09T04:25:01.367Z,97.06
2019-05-09T04:30:01.491Z,97.36
2019-05-09T04:35:01.704Z,97.18
2019-05-09T04:40:03.268Z,96.72
2019-05-09T04:45:03.445Z,96.13
2019-05-09T04:50:01.853Z,95.66
2019-05-09T04:55:01.605Z,94.96
2019-05-09T05:00:01.741Z,94.39
2019-05-09T05:05:01.867Z,94.01
2019-05-09T05:10:01.978Z,94.02
2019-05-09T05:15:01.146Z,93.74
2019-05-09T05:20:01.270Z,93.39
2019-05-09T05:25:01.467Z,91.58
2019-05-09T05:30:01.603Z,90.63
2019-05-09T05:35:01.735Z,89.52
2019-05-09T05:40:01.849Z,88.72
2019-05-09T05:45:02.081Z,86.81
2019-05-09T05:50:01.225Z,84.32
2019-05-09T05:55:01.357Z,84.35
2019-05-09T06:00:01.477Z,82.93
2019-05-09T06:05:01.740Z,82.04
2019-05-09T06:10:01.840Z,81.85
2019-05-09T06:15:01.968Z,82.54
2019-05-09T06:20:02.300Z,83.04
2019-05-09T06:25:01.474Z,83.24
2019-05-09T06:30:01.567Z,83.3
2019-05-09T06:35:01.698Z,83.63
2019-05-09T06:40:01.948Z,83.6
2019-05-09T06:45:02.072Z,84.25
2019-05-09T06:50:01.172Z,82.5
2019-05-09T06:55:01.269Z,81.65
2019-05-09T07:00:01.458Z,81.33
2019-05-09T07:05:01.620Z,83.82
2019-05-09T07:10:01.754Z,85.96
2019-05-09T07:15:01.889Z,86.73
2019-05-09T07:20:02.123Z,87.48
2019-05-09T07:25:06.871Z,86.83
2019-05-09T07:30:01.491Z,87.62
2019-05-09T07:35:01.636Z,87.65
2019-05-09T07:40:01.842Z,87.95
2019-05-09T07:45:01.942Z,88.69
2019-05-09T07:50:02.034Z,87.36
2019-05-09T07:55:01.141Z,86.87
2019-05-09T08:00:01.271Z,83.45
2019-05-09T08:05:01.381Z,81.44
2019-05-09T08:10:01.550Z,81.2
2019-05-09T08:15:13.764Z,82.99
2019-05-09T08:20:01.469Z,83.53
2019-05-09T08:25:01.573Z,84.06
2019-05-09T08:30:01.671Z,84.04
2019-05-09T08:35:01.804Z,83.15
2019-05-09T08:40:01.961Z,83.17
2019-05-09T08:45:02.091Z,82.81
2019-05-09T08:50:01.207Z,82.54
2019-05-09T08:55:01.325Z,81.46
2019-05-09T09:00:01.532Z,82.82
2019-05-09T09:05:01.641Z,82.71
2019-05-09T09:10:01.747Z,83.22
2019-05-09T09:15:02.021Z,83.97
2019-05-09T09:20:01.302Z,84.73
2019-05-09T09:25:01.430Z,83.15
2019-05-09T09:30:16.618Z,84.56
2019-05-09T09:35:01.237Z,85.14
2019-05-09T09:40:01.362Z,84.63
2019-05-09T09:45:01.497Z,85.31
2019-05-09T09:50:01.600Z,85.35
2019-05-09T09:55:01.697Z,84.49
2019-05-09T10:00:01.903Z,84.15
2019-05-09T10:05:02.028Z,84.39
2019-05-09T10:10:01.123Z,84.45
2019-05-09T10:15:01.284Z,84.69
2019-05-09T10:20:01.409Z,83.74
2019-05-09T10:25:01.526Z,82.79
2019-05-09T10:30:01.627Z,82.59
2019-05-09T10:35:01.784Z,81.57
2019-05-09T10:40:01.917Z,79.84
2019-05-09T10:45:02.039Z,79.62
2019-05-09T10:50:01.134Z,78.75
2019-05-09T10:55:01.258Z,79.22
2019-05-09T11:00:01.475Z,79.01
2019-05-09T11:05:01.606Z,78.22
2019-05-09T11:10:01.703Z,76.58
2019-05-09T11:15:02.148Z,75.7
2019-05-09T11:20:01.329Z,76.61
2019-05-09T11:25:01.430Z,77.91
2019-05-09T11:30:01.565Z,77.61
2019-05-09T11:35:01.686Z,77.27
2019-05-09T11:40:01.821Z,76.94
2019-05-09T11:45:01.963Z,75.87
2019-05-09T11:50:02.067Z,76.71
2019-05-09T11:55:01.179Z,74.59
2019-05-09T12:00:01.322Z,73.59
2019-05-09T12:05:01.444Z,74.37
2019-05-09T12:10:01.555Z,73.52
2019-05-09T12:15:01.736Z,74.36
2019-05-09T12:20:10.617Z,76.55
2019-05-09T12:25:01.493Z,77.01
2019-05-09T12:30:01.609Z,77.33
2019-05-09T12:35:01.721Z,78.32
2019-05-09T12:40:01.871Z,79.72
2019-05-09T12:45:01.982Z,79.99
2019-05-09T12:50:02.889Z,80.57
2019-05-09T12:55:01.295Z,80.22
2019-05-09T13:00:01.464Z,79.51
2019-05-09T13:05:01.618Z,80.71
2019-05-09T13:10:01.718Z,80.67
2019-05-09T13:15:01.872Z,80.03
2019-05-09T13:20:02.100Z,80.55
2019-05-09T13:25:03.013Z,81.11
2019-05-09T13:30:01.313Z,82.63
2019-05-09T13:35:01.424Z,81.16
2019-05-09T13:40:01.595Z,81.05
2019-05-09T13:45:01.732Z,79.88
2019-05-09T13:50:01.850Z,80.74
2019-05-09T13:55:02.044Z,80.05
2019-05-09T14:00:01.407Z,79.79
2019-05-09T14:05:01.692Z,78.36
2019-05-09T14:10:01.882Z,78.49
2019-05-09T14:15:02.016Z,77.03
2019-05-09T14:20:01.446Z,78.55
2019-05-09T14:25:01.736Z,80.09
2019-05-09T14:30:01.849Z,81.61
2019-05-09T14:35:02.732Z,83.86
2019-05-09T14:40:04.382Z,81.01
2019-05-09T14:45:01.302Z,81.47
2019-05-09T14:50:01.406Z,82.57
2019-05-09T14:55:01.510Z,80.23
2019-05-09T15:00:01.714Z,81.6
2019-05-09T15:05:02.237Z,79.86
2019-05-09T15:10:01.938Z,80.77
2019-05-09T15:15:01.123Z,82.41
2019-05-09T15:20:01.302Z,82.67
2019-05-09T15:25:01.449Z,82.01
2019-05-09T15:30:01.573Z,82.54
2019-05-09T15:35:01.686Z,82.15
2019-05-09T15:40:01.872Z,82.51
2019-05-09T15:45:02.005Z,80.11
2019-05-09T15:50:15.439Z,81.72
2019-05-09T15:55:01.098Z,82.26
2019-05-09T16:00:01.282Z,81.92
2019-05-09T16:05:01.390Z,80.49
2019-05-09T16:10:01.491Z,79.82
2019-05-09T16:15:01.627Z,82.22
2019-05-09T16:20:01.756Z,80.34
2019-05-09T16:25:01.858Z,78.16
2019-05-09T16:30:01.988Z,78.44
2019-05-09T16:35:01.114Z,79.51
2019-05-09T16:40:01.241Z,78.76
2019-05-09T16:45:01.410Z,80.03
2019-05-09T16:50:01.535Z,78.96
2019-05-09T16:55:01.650Z,78.03
2019-05-09T17:00:02.631Z,78.37
2019-05-09T17:05:01.104Z,76.9
2019-05-09T17:10:01.203Z,79.13
2019-05-09T17:15:01.351Z,78.48
2019-05-09T17:20:01.479Z,78.82
2019-05-09T17:25:01.574Z,80.03
2019-05-09T17:30:01.703Z,78.02
2019-05-09T17:35:02.010Z,80.14
2019-05-09T17:40:01.210Z,80.58
2019-05-09T17:45:01.354Z,79.88
2019-05-09T17:50:01.472Z,81.97
2019-05-09T17:55:01.577Z,82.15
2019-05-09T18:00:01.770Z,82.14
2019-05-09T18:05:01.879Z,82.25
2019-05-09T18:10:01.978Z,83.08
2019-05-09T18:15:02.167Z,83.88
2019-05-09T18:20:01.280Z,83.89
2019-05-09T18:25:01.375Z,83.27
2019-05-09T18:30:01.515Z,83.97
2019-05-09T18:35:01.646Z,84.76
2019-05-09T18:40:01.750Z,86.27
2019-05-09T18:45:01.900Z,87.23
2019-05-09T18:50:02.092Z,80.58
2019-05-09T18:55:01.270Z,85.14
2019-05-09T19:00:01.411Z,92.24
2019-05-09T19:05:01.532Z,94.7
2019-05-09T19:10:01.723Z,96.23
2019-05-09T19:15:01.920Z,97.53
2019-05-09T19:20:02.022Z,98.39
2019-05-09T19:25:01.132Z,98.24
2019-05-09T19:30:01.265Z,97.63
2019-05-09T19:35:01.433Z,98.81
2019-05-09T19:40:01.543Z,98.22
2019-05-09T19:45:01.682Z,98.47
2019-05-09T19:50:02.075Z,98.5
2019-05-09T19:55:01.297Z,98.79
2019-05-09T20:00:01.408Z,98.7
2019-05-09T20:05:01.546Z,98.66
2019-05-09T20:10:01.650Z,98.79
2019-05-09T20:15:01.951Z,99.05
2019-05-09T20:20:02.154Z,99.04
2019-05-09T20:25:01.315Z,97.06
2019-05-09T20:30:01.467Z,97.26
2019-05-09T20:35:01.655Z,97.4
2019-05-09T20:40:01.755Z,97.36
2019-05-09T20:45:01.893Z,97.41
2019-05-09T20:50:01.996Z,97.48
2019-05-09T20:55:01.149Z,97.54
2019-05-09T21:00:01.304Z,97.69
2019-05-09T21:05:01.445Z,99.49
2019-05-09T21:10:01.564Z,99.69
2019-05-09T21:15:01.766Z,99.71
2019-05-09T21:20:01.886Z,99.65
2019-05-09T21:25:02.011Z,99.67
2019-05-09T21:30:01.123Z,99.7
2019-05-09T21:35:01.275Z,99.55
2019-05-09T21:40:01.371Z,99.55
2019-05-09T21:45:01.544Z,99.59
2019-05-09T21:50:01.698Z,99.63
2019-05-09T21:55:01.853Z,99.65
2019-05-09T22:00:01.992Z,99.71
2019-05-09T22:05:01.110Z,99.77
2019-05-09T22:10:01.209Z,99.64
2019-05-09T22:15:03.867Z,99.75
2019-05-09T22:20:01.248Z,99.79
2019-05-09T22:25:01.343Z,99.66
2019-05-09T22:30:01.523Z,97.75
2019-05-09T22:35:01.677Z,97.71
2019-05-09T22:40:01.805Z,97.71
2019-05-09T22:45:01.949Z,97.74
2019-05-09T22:50:02.061Z,97.57
2019-05-09T22:55:01.215Z,97.38
2019-05-09T23:00:01.466Z,97.31
2019-05-09T23:05:01.706Z,96.77
2019-05-09T23:10:01.808Z,98.4
2019-05-09T23:15:01.932Z,98.41
2019-05-09T23:20:02.161Z,98.3
2019-05-09T23:25:01.269Z,98.37
2019-05-09T23:30:01.406Z,99
2019-05-09T23:35:01.623Z,96.49
2019-05-09T23:40:01.843Z,98.91
2019-05-09T23:45:01.991Z,98.71
2019-05-09T23:50:01.129Z,95.8
2019-05-09T23:55:01.291Z,95.05
